createdAt,value
2019-03-20T00:00:35.739Z,88.00
2019-03-20T00:03:05.243Z,87.90
2019-03-20T00:05:34.268Z,87.60
2019-03-20T00:08:03.242Z,87.80
2019-03-20T00:10:31.895Z,87.60
2019-03-20T00:13:00.589Z,87.90
2019-03-20T00:15:29.307Z,87.60
2019-03-20T00:17:57.934Z,87.50
2019-03-20T00:20:26.857Z,87.20
2019-03-20T00:22:55.517Z,87.80
2019-03-20T00:25:24.094Z,88.30
2019-03-20T00:27:52.662Z,88.30
2019-03-20T00:30:21.640Z,88.30
2019-03-20T00:32:50.302Z,88.40
2019-03-20T00:35:18.942Z,88.70
2019-03-20T00:37:47.598Z,89.10
2019-03-20T00:40:17.816Z,89.50
2019-03-20T00:42:47.522Z,90.00
2019-03-20T00:45:20.693Z,90.30
2019-03-20T00:47:49.402Z,90.60
2019-03-20T00:50:19.024Z,90.90
2019-03-20T00:52:48.020Z,90.90
2019-03-20T00:55:17.631Z,91.30
2019-03-20T00:57:47.258Z,91.30
2019-03-20T01:00:25.723Z,91.30
2019-03-20T01:02:54.422Z,91.50
2019-03-20T01:05:23.231Z,91.70
2019-03-20T01:07:52.036Z,91.40
2019-03-20T01:10:22.702Z,91.60
2019-03-20T01:12:51.693Z,91.80
2019-03-20T01:15:20.759Z,91.90
2019-03-20T01:17:49.486Z,92.40
2019-03-20T01:20:21.175Z,92.60
2019-03-20T01:22:50.178Z,93.30
2019-03-20T01:25:19.299Z,93.60
2019-03-20T01:27:48.062Z,93.80
2019-03-20T01:30:33.611Z,93.80
2019-03-20T01:33:10.327Z,93.90
2019-03-20T01:35:39.066Z,94.40
2019-03-20T01:38:08.892Z,94.20
2019-03-20T01:40:40.099Z,94.00
2019-03-20T01:43:08.554Z,94.10
2019-03-20T01:45:37.243Z,94.30
2019-03-20T01:48:06.210Z,94.40
2019-03-20T01:50:35.065Z,94.40
2019-03-20T01:53:03.762Z,94.50
2019-03-20T01:55:32.582Z,94.20
2019-03-20T01:58:01.137Z,94.00
2019-03-20T02:00:29.852Z,94.20
2019-03-20T02:02:58.516Z,94.20
2019-03-20T02:05:35.860Z,94.20
2019-03-20T02:07:57.536Z,94.30
2019-03-20T02:10:26.220Z,94.20
2019-03-20T02:12:54.898Z,93.90
2019-03-20T02:15:23.527Z,94.10
2019-03-20T02:17:52.156Z,93.70
2019-03-20T02:20:21.626Z,93.60
2019-03-20T02:22:50.316Z,93.60
2019-03-20T02:25:19.026Z,93.40
2019-03-20T02:27:47.747Z,93.30
2019-03-20T02:30:18.778Z,93.00
2019-03-20T02:32:47.754Z,92.90
2019-03-20T02:35:16.487Z,92.60
2019-03-20T02:37:45.191Z,92.20
2019-03-20T02:40:15.048Z,92.20
2019-03-20T02:42:43.891Z,92.40
2019-03-20T02:45:14.826Z,92.20
2019-03-20T02:47:43.848Z,92.40
2019-03-20T02:50:13.881Z,92.10
2019-03-20T02:52:42.748Z,92.10
2019-03-20T02:55:12.765Z,92.80
2019-03-20T02:57:41.484Z,93.20
2019-03-20T03:00:15.748Z,93.30
2019-03-20T03:02:44.388Z,93.10
2019-03-20T03:05:13.979Z,93.40
2019-03-20T03:07:42.606Z,93.60
2019-03-20T03:10:15.829Z,93.60
2019-03-20T03:12:45.180Z,93.40
2019-03-20T03:15:15.526Z,92.90
2019-03-20T03:17:44.233Z,93.00
2019-03-20T03:20:14.453Z,93.00
2019-03-20T03:22:43.175Z,92.50
2019-03-20T03:25:13.283Z,92.20
2019-03-20T03:27:41.934Z,92.00
2019-03-20T03:30:17.838Z,92.20
2019-03-20T03:32:46.885Z,92.10
2019-03-20T03:35:19.048Z,92.00
2019-03-20T03:37:46.522Z,92.10
2019-03-20T03:40:19.150Z,92.00
2019-03-20T03:42:47.836Z,91.80
2019-03-20T03:45:17.275Z,91.70
2019-03-20T03:47:45.962Z,91.80
2019-03-20T03:50:15.573Z,91.30
2019-03-20T03:52:44.194Z,91.50
2019-03-20T03:55:14.348Z,91.50
2019-03-20T03:57:43.242Z,91.10
2019-03-20T04:00:16.359Z,91.00
2019-03-20T04:02:45.001Z,90.90
2019-03-20T04:05:14.294Z,90.60
2019-03-20T04:07:43.014Z,90.30
2019-03-20T04:10:16.016Z,90.30
2019-03-20T04:12:44.779Z,90.00
2019-03-20T04:15:14.623Z,90.10
2019-03-20T04:17:43.451Z,90.00
2019-03-20T04:20:17.371Z,89.40
2019-03-20T04:22:46.043Z,89.90
2019-03-20T04:25:15.186Z,90.20
2019-03-20T04:27:43.865Z,90.20
2019-03-20T04:30:16.558Z,90.30
2019-03-20T04:32:45.384Z,90.50
2019-03-20T04:35:14.363Z,90.60
2019-03-20T04:37:42.989Z,90.70
2019-03-20T04:40:13.998Z,90.90
2019-03-20T04:42:42.892Z,91.20
2019-03-20T04:45:13.534Z,91.40
2019-03-20T04:47:42.397Z,91.50
2019-03-20T04:50:15.914Z,91.70
2019-03-20T04:52:44.947Z,91.80
2019-03-20T04:55:13.678Z,92.00
2019-03-20T04:57:42.228Z,92.00
2019-03-20T05:00:13.637Z,92.10
2019-03-20T05:02:42.485Z,92.30
2019-03-20T05:05:11.473Z,92.30
2019-03-20T05:07:40.158Z,92.20
2019-03-20T05:10:11.605Z,92.10
2019-03-20T05:12:40.671Z,92.20
2019-03-20T05:15:11.280Z,92.30
2019-03-20T05:17:40.015Z,92.60
2019-03-20T05:20:19.718Z,92.50
2019-03-20T05:22:48.476Z,92.50
2019-03-20T05:25:17.138Z,92.80
2019-03-20T05:27:45.803Z,92.80
2019-03-20T05:30:15.658Z,92.50
2019-03-20T05:32:44.452Z,92.40
2019-03-20T05:35:13.101Z,92.20
2019-03-20T05:37:42.167Z,92.40
2019-03-20T05:40:16.651Z,92.70
2019-03-20T05:42:45.374Z,92.40
2019-03-20T05:45:15.460Z,92.30
2019-03-20T05:47:44.288Z,92.40
2019-03-20T05:50:17.131Z,92.50
2019-03-20T05:52:45.745Z,92.70
2019-03-20T05:55:14.450Z,92.60
2019-03-20T05:57:43.184Z,92.70
2019-03-20T06:00:19.558Z,92.60
2019-03-20T06:02:48.266Z,92.60
2019-03-20T06:05:16.866Z,92.30
2019-03-20T06:07:47.367Z,92.10
2019-03-20T06:10:16.839Z,92.10
2019-03-20T06:12:45.789Z,92.50
2019-03-20T06:15:15.332Z,91.90
2019-03-20T06:17:46.626Z,92.00
2019-03-20T06:20:15.714Z,91.90
2019-03-20T06:22:44.693Z,92.10
2019-03-20T06:25:14.667Z,91.80
2019-03-20T06:27:43.499Z,91.80
2019-03-20T06:30:20.095Z,91.70
2019-03-20T06:32:48.767Z,91.90
2019-03-20T06:35:17.396Z,91.70
2019-03-20T06:37:46.277Z,91.70
2019-03-20T06:40:19.220Z,91.70
2019-03-20T06:42:47.851Z,91.70
2019-03-20T06:45:21.093Z,91.30
2019-03-20T06:47:49.741Z,91.00
2019-03-20T06:50:22.714Z,91.00
2019-03-20T06:52:51.629Z,90.80
2019-03-20T06:55:20.385Z,91.00
2019-03-20T06:57:49.166Z,90.90
2019-03-20T07:00:35.711Z,90.60
2019-03-20T07:03:10.282Z,90.40
2019-03-20T07:06:07.776Z,90.50
2019-03-20T07:08:39.426Z,90.40
2019-03-20T07:11:08.509Z,90.20
2019-03-20T07:13:37.358Z,90.10
2019-03-20T07:16:06.402Z,90.10
2019-03-20T07:18:35.131Z,88.70
2019-03-20T07:21:04.492Z,88.30
2019-03-20T07:23:34.261Z,88.40
2019-03-20T07:26:02.960Z,88.00
2019-03-20T07:28:31.630Z,87.50
2019-03-20T07:31:00.230Z,87.60
2019-03-20T07:33:28.930Z,86.80
2019-03-20T07:35:58.431Z,86.70
2019-03-20T07:38:27.078Z,86.10
2019-03-20T07:40:56.006Z,84.70
2019-03-20T07:43:26.833Z,83.40
2019-03-20T07:45:55.003Z,83.90
2019-03-20T07:48:23.667Z,83.60
2019-03-20T07:50:52.390Z,82.90
2019-03-20T07:53:21.374Z,82.60
2019-03-20T07:55:50.059Z,82.50
2019-03-20T07:58:19.039Z,82.80
2019-03-20T08:00:47.680Z,80.00
2019-03-20T08:03:16.343Z,79.80
2019-03-20T08:05:45.396Z,78.70
2019-03-20T08:08:14.387Z,77.60
2019-03-20T08:10:42.982Z,75.90
2019-03-20T08:13:11.713Z,75.70
2019-03-20T08:15:40.373Z,76.30
2019-03-20T08:18:09.111Z,74.40
2019-03-20T08:20:37.829Z,75.60
2019-03-20T08:23:08.409Z,75.40
2019-03-20T08:25:36.866Z,72.60
2019-03-20T08:28:05.494Z,72.00
2019-03-20T08:30:34.341Z,71.90
2019-03-20T08:33:02.906Z,70.70
2019-03-20T08:35:31.844Z,71.20
2019-03-20T08:38:00.743Z,70.00
2019-03-20T08:40:29.394Z,69.40
2019-03-20T08:42:58.104Z,69.10
2019-03-20T08:45:28.648Z,69.00
2019-03-20T08:47:57.247Z,69.30
2019-03-20T08:50:27.786Z,67.60
2019-03-20T08:52:56.427Z,67.00
2019-03-20T08:55:25.030Z,67.10
2019-03-20T08:57:53.707Z,65.60
2019-03-20T09:00:23.902Z,63.80
2019-03-20T09:02:52.962Z,62.30
2019-03-20T09:05:21.657Z,59.70
2019-03-20T09:07:50.370Z,57.40
2019-03-20T09:10:22.677Z,55.20
2019-03-20T09:12:51.316Z,51.90
2019-03-20T09:15:20.919Z,50.70
2019-03-20T09:17:49.887Z,47.40
2019-03-20T09:20:22.651Z,45.20
2019-03-20T09:22:50.443Z,43.10
2019-03-20T09:25:21.237Z,43.70
2019-03-20T09:27:50.007Z,45.30
2019-03-20T09:30:20.531Z,43.80
2019-03-20T09:32:49.475Z,43.80
2019-03-20T09:35:18.757Z,44.60
2019-03-20T09:37:52.282Z,43.00
2019-03-20T09:40:23.599Z,42.70
2019-03-20T09:42:52.290Z,42.00
2019-03-20T09:45:22.072Z,43.80
2019-03-20T09:47:50.912Z,43.60
2019-03-20T09:50:23.726Z,43.30
2019-03-20T09:52:51.636Z,43.60
2019-03-20T09:55:20.443Z,42.50
2019-03-20T09:57:49.152Z,39.80
2019-03-20T10:00:20.079Z,38.60
2019-03-20T10:02:49.735Z,37.30
2019-03-20T10:05:18.434Z,34.70
2019-03-20T10:07:47.211Z,35.30
2019-03-20T10:10:21.528Z,35.60
2019-03-20T10:12:50.612Z,34.10
2019-03-20T10:15:24.050Z,34.40
2019-03-20T10:17:52.686Z,37.10
2019-03-20T10:20:22.423Z,38.60
2019-03-20T10:22:51.394Z,41.80
2019-03-20T10:25:20.507Z,41.30
2019-03-20T10:27:51.708Z,40.90
2019-03-20T10:30:23.650Z,42.80
2019-03-20T10:32:52.916Z,45.00
2019-03-20T10:35:21.668Z,45.80
2019-03-20T10:37:50.452Z,46.20
2019-03-20T10:40:21.068Z,47.00
2019-03-20T10:42:50.199Z,46.50
2019-03-20T10:45:20.606Z,46.00
2019-03-20T10:47:52.800Z,44.50
2019-03-20T10:50:24.626Z,42.80
2019-03-20T10:52:52.430Z,42.70
2019-03-20T10:55:21.293Z,44.50
2019-03-20T10:57:50.066Z,45.10
2019-03-20T11:00:23.176Z,45.20
2019-03-20T11:02:51.878Z,45.90
2019-03-20T11:05:20.844Z,44.90
2019-03-20T11:07:50.047Z,44.90
2019-03-20T11:10:25.504Z,45.30
2019-03-20T11:12:54.491Z,46.90
2019-03-20T11:15:24.244Z,45.80
2019-03-20T11:17:53.077Z,45.10
2019-03-20T11:20:25.435Z,44.70
2019-03-20T11:22:54.332Z,43.40
2019-03-20T11:25:24.550Z,42.50
2019-03-20T11:27:53.544Z,42.70
2019-03-20T11:30:33.436Z,42.70
2019-03-20T11:33:02.001Z,41.50
2019-03-20T11:35:30.682Z,41.70
2019-03-20T11:37:59.340Z,41.60
2019-03-20T11:40:35.785Z,40.60
2019-03-20T11:43:05.128Z,37.50
2019-03-20T11:45:33.765Z,37.60
2019-03-20T11:48:02.466Z,38.90
2019-03-20T11:50:42.241Z,40.50
2019-03-20T11:53:11.331Z,40.50
2019-03-20T11:55:40.079Z,40.70
2019-03-20T11:58:09.119Z,41.30
2019-03-20T12:00:38.046Z,40.00
2019-03-20T12:03:07.058Z,40.70
2019-03-20T12:05:35.764Z,40.80
2019-03-20T12:08:04.991Z,42.10
2019-03-20T12:10:34.224Z,43.40
2019-03-20T12:13:02.878Z,44.10
2019-03-20T12:15:31.703Z,45.40
2019-03-20T12:18:00.501Z,44.40
2019-03-20T12:20:29.246Z,44.50
2019-03-20T12:22:57.995Z,43.90
2019-03-20T12:25:31.882Z,44.00
2019-03-20T12:28:00.573Z,43.80
2019-03-20T12:30:30.977Z,44.80
2019-03-20T12:33:01.661Z,44.40
2019-03-20T12:35:36.230Z,43.10
2019-03-20T12:38:14.513Z,43.40
2019-03-20T12:40:36.507Z,43.50
2019-03-20T12:43:06.143Z,44.10
2019-03-20T12:45:36.383Z,43.70
2019-03-20T12:48:06.562Z,43.90
2019-03-20T12:50:35.512Z,43.30
2019-03-20T12:53:05.120Z,43.60
2019-03-20T12:55:33.848Z,44.00
2019-03-20T12:58:02.812Z,43.90
2019-03-20T13:00:31.822Z,43.70
2019-03-20T13:03:00.394Z,43.30
2019-03-20T13:05:28.971Z,43.20
2019-03-20T13:08:05.333Z,42.50
2019-03-20T13:10:28.565Z,43.30
2019-03-20T13:12:57.146Z,42.60
2019-03-20T13:15:29.506Z,43.60
2019-03-20T13:17:58.216Z,43.20
2019-03-20T13:20:27.726Z,43.30
2019-03-20T13:22:59.519Z,44.50
2019-03-20T13:25:28.328Z,45.40
2019-03-20T13:27:57.397Z,46.30
2019-03-20T13:30:44.312Z,46.10
2019-03-20T13:33:25.240Z,46.50
2019-03-20T13:35:46.931Z,47.10
2019-03-20T13:38:15.679Z,46.40
2019-03-20T13:40:44.314Z,45.90
2019-03-20T13:43:13.006Z,46.20
2019-03-20T13:45:41.591Z,46.30
2019-03-20T13:48:10.195Z,45.60
2019-03-20T13:50:39.120Z,45.20
2019-03-20T13:53:08.104Z,45.80
2019-03-20T13:55:36.793Z,46.20
2019-03-20T13:58:05.450Z,46.30
2019-03-20T14:00:36.008Z,46.40
2019-03-20T14:03:04.744Z,45.80
2019-03-20T14:05:33.479Z,45.80
2019-03-20T14:08:02.161Z,46.20
2019-03-20T14:10:31.755Z,45.60
2019-03-20T14:13:00.438Z,46.50
2019-03-20T14:15:29.334Z,46.60
2019-03-20T14:17:58.145Z,47.50
2019-03-20T14:20:31.118Z,47.50
2019-03-20T14:22:59.873Z,48.20
2019-03-20T14:25:28.630Z,48.50
2019-03-20T14:27:57.311Z,49.40
2019-03-20T14:30:32.212Z,49.80
2019-03-20T14:33:00.544Z,50.50
2019-03-20T14:35:29.315Z,50.70
2019-03-20T14:38:00.558Z,51.10
2019-03-20T14:40:36.825Z,52.10
2019-03-20T14:43:03.971Z,52.00
2019-03-20T14:45:32.652Z,52.10
2019-03-20T14:48:01.359Z,52.40
2019-03-20T14:50:31.031Z,51.90
2019-03-20T14:53:00.165Z,52.20
2019-03-20T14:55:28.992Z,52.40
2019-03-20T14:57:57.775Z,52.50
2019-03-20T15:00:30.770Z,52.50
2019-03-20T15:02:59.687Z,53.00
2019-03-20T15:05:28.358Z,53.70
2019-03-20T15:07:57.080Z,54.00
2019-03-20T15:10:27.952Z,54.70
2019-03-20T15:12:57.339Z,55.00
2019-03-20T15:15:41.069Z,55.10
2019-03-20T15:18:09.805Z,55.00
2019-03-20T15:20:38.563Z,55.20
2019-03-20T15:23:07.223Z,55.30
2019-03-20T15:25:36.254Z,55.80
2019-03-20T15:28:05.106Z,55.90
2019-03-20T15:30:33.742Z,55.40
2019-03-20T15:33:02.406Z,55.80
2019-03-20T15:35:31.015Z,56.30
2019-03-20T15:37:59.573Z,56.30
2019-03-20T15:40:31.740Z,57.00
2019-03-20T15:43:00.438Z,57.30
2019-03-20T15:45:29.088Z,58.70
2019-03-20T15:47:57.758Z,59.00
2019-03-20T15:50:28.215Z,59.60
2019-03-20T15:52:57.170Z,60.90
2019-03-20T15:55:28.467Z,60.20
2019-03-20T15:57:57.214Z,63.00
2019-03-20T16:00:25.879Z,65.50
2019-03-20T16:03:03.810Z,68.70
2019-03-20T16:05:32.442Z,67.50
2019-03-20T16:08:01.793Z,69.80
2019-03-20T16:10:30.526Z,67.50
2019-03-20T16:12:59.384Z,66.50
2019-03-20T16:15:28.203Z,66.50
2019-03-20T16:17:56.815Z,65.80
2019-03-20T16:20:25.527Z,66.50
2019-03-20T16:22:54.318Z,66.30
2019-03-20T16:25:24.351Z,66.60
2019-03-20T16:27:52.951Z,65.90
2019-03-20T16:30:25.667Z,64.00
2019-03-20T16:32:56.392Z,64.00
2019-03-20T16:35:24.884Z,66.00
2019-03-20T16:37:53.622Z,65.10
2019-03-20T16:40:30.830Z,65.30
2019-03-20T16:42:59.489Z,65.60
2019-03-20T16:45:32.173Z,66.80
2019-03-20T16:48:01.044Z,67.70
2019-03-20T16:50:29.637Z,70.20
2019-03-20T16:52:58.715Z,73.50
2019-03-20T16:55:27.336Z,77.50
2019-03-20T16:57:56.107Z,81.30
2019-03-20T17:00:30.126Z,82.80
2019-03-20T17:02:58.974Z,85.50
2019-03-20T17:05:29.058Z,85.70
2019-03-20T17:08:00.465Z,87.10
2019-03-20T17:10:34.660Z,90.10
2019-03-20T17:13:03.396Z,92.20
2019-03-20T17:15:37.208Z,92.90
2019-03-20T17:18:06.954Z,91.80
2019-03-20T17:20:35.680Z,92.20
2019-03-20T17:23:05.182Z,91.50
2019-03-20T17:25:35.691Z,91.90
2019-03-20T17:28:05.699Z,91.80
2019-03-20T17:30:39.381Z,93.40
2019-03-20T17:33:08.442Z,93.20
2019-03-20T17:35:37.061Z,93.30
2019-03-20T17:38:06.323Z,93.50
2019-03-20T17:40:35.032Z,93.60
2019-03-20T17:43:04.546Z,93.40
2019-03-20T17:45:33.916Z,93.20
2019-03-20T17:48:02.599Z,93.00
2019-03-20T17:50:33.158Z,93.20
2019-03-20T17:53:02.107Z,93.40
2019-03-20T17:55:31.173Z,93.20
2019-03-20T17:57:59.912Z,93.60
2019-03-20T18:00:40.055Z,93.60
2019-03-20T21:50:55.662Z,95.40
2019-03-20T21:53:27.359Z,95.20
2019-03-20T21:56:21.331Z,95.10
2019-03-20T21:58:58.816Z,95.00
2019-03-20T22:01:47.826Z,95.30
2019-03-20T22:04:16.679Z,95.10
2019-03-20T22:07:08.495Z,95.00
2019-03-20T22:09:55.414Z,95.10
2019-03-20T22:12:29.776Z,95.20
2019-03-20T22:15:10.325Z,95.20
2019-03-20T22:18:15.245Z,95.00
2019-03-20T22:20:58.873Z,95.00
2019-03-20T22:23:48.394Z,95.20
2019-03-20T22:26:28.897Z,95.10
2019-03-20T22:29:03.346Z,95.10
2019-03-20T22:31:35.146Z,95.30
2019-03-20T22:34:32.503Z,95.30
2019-03-20T22:37:01.445Z,95.20
2019-03-20T22:39:55.692Z,95.40
2019-03-20T22:42:33.466Z,94.90
2019-03-20T22:45:14.026Z,94.90
2019-03-20T22:47:57.693Z,95.00
2019-03-20T22:50:38.526Z,95.30
2019-03-20T22:53:19.222Z,95.30
2019-03-20T22:55:53.605Z,95.30
2019-03-20T22:58:31.056Z,95.30
2019-03-20T23:01:01.275Z,95.30
2019-03-20T23:03:45.319Z,95.50
2019-03-20T23:06:14.310Z,95.60
2019-03-20T23:08:42.963Z,95.60
2019-03-20T23:11:11.984Z,95.80
2019-03-20T23:13:41.675Z,96.10
2019-03-20T23:16:13.651Z,96.30
2019-03-20T23:18:42.642Z,96.50
2019-03-20T23:21:11.324Z,96.70
2019-03-20T23:23:40.623Z,96.80
2019-03-20T23:26:09.613Z,96.90
2019-03-20T23:28:38.748Z,96.90
2019-03-20T23:31:07.595Z,97.00
2019-03-20T23:33:36.277Z,97.10
2019-03-20T23:36:05.576Z,97.20
2019-03-20T23:38:34.232Z,97.20
2019-03-20T23:41:03.251Z,97.40
2019-03-20T23:43:31.902Z,97.40
2019-03-20T23:46:00.630Z,97.60
2019-03-20T23:48:32.680Z,97.60
2019-03-20T23:51:04.336Z,97.60
2019-03-20T23:53:33.736Z,97.80
2019-03-20T23:56:02.385Z,97.90
2019-03-20T23:58:31.417Z,98.10
